Time;durP1;ratioP1;P1;durP2;ratioP2;P2;SDS_P1;SDS_P2;PMS_P1;PMS_P2;Temp;Humidity;BMP_temperature;BMP_pressure;BME280_temperature;BME280_humidity;BME280_pressure;Samples;Min_cycle;Max_cycle;Signal;HPM_P1;HPM_P2
2021/08/17 00:00:28;;;;;;;;;18.75;15.50;;;;;18.16;52.85;101407.53;5036758;28;45190;-59
2021/08/17 00:02:53;;;;;;;;;27.25;22.75;;;;;18.15;52.71;101407.72;5035999;28;58432;-60
2021/08/17 00:05:19;;;;;;;;;28.75;21.25;;;;;18.13;52.82;101407.88;5035767;28;69113;-61
2021/08/17 00:07:44;;;;;;;;;17.25;15.50;;;;;18.13;53.04;101402.56;5036485;28;45390;-60
2021/08/17 00:10:10;;;;;;;;;26.50;20.25;;;;;18.13;52.97;101402.56;5036548;28;45478;-61
2021/08/17 00:12:35;;;;;;;;;25.25;19.75;;;;;18.10;53.23;101400.22;5036701;28;45445;-60
2021/08/17 00:15:01;;;;;;;;;20.75;19.50;;;;;18.07;53.26;101401.38;5036493;28;45423;-61
2021/08/17 00:17:26;;;;;;;;;23.25;22.00;;;;;18.07;53.28;101405.88;5036417;28;45452;-61
2021/08/17 00:19:52;;;;;;;;;20.50;14.75;;;;;18.05;53.70;101399.88;5035486;28;70521;-61
2021/08/17 00:22:22;;;;;;;;;26.50;19.50;;;;;18.04;54.04;101406.19;5036339;28;45460;-61
2021/08/17 00:24:47;;;;;;;;;17.25;13.25;;;;;18.00;54.08;101408.34;5036407;28;45452;-60
2021/08/17 00:27:13;;;;;;;;;21.00;16.75;;;;;17.97;54.02;101405.19;5051674;28;49344;-61
2021/08/17 00:29:38;;;;;;;;;19.00;17.00;;;;;17.93;54.12;101404.66;5035291;28;73195;-60
2021/08/17 00:32:04;;;;;;;;;21.00;14.50;;;;;17.89;54.43;101404.16;5036267;28;45225;-61
2021/08/17 00:34:29;;;;;;;;;21.25;16.50;;;;;17.86;54.39;101403.63;5051235;28;45378;-59
2021/08/17 00:36:54;;;;;;;;;19.75;17.00;;;;;17.84;54.74;101401.16;5035534;28;63818;-61
2021/08/17 00:39:20;;;;;;;;;22.75;18.50;;;;;17.84;54.90;101405.63;5018924;28;68264;-60
2021/08/17 00:41:46;;;;;;;;;20.75;17.75;;;;;17.81;54.76;101401.47;5040032;28;45297;-60
2021/08/17 00:44:24;;;;;;;;;25.25;18.25;;;;;17.79;54.85;101398.16;5039820;28;45292;-61
2021/08/17 00:46:50;;;;;;;;;18.00;16.50;;;;;17.78;54.81;101397.31;5038467;28;46607;-61
2021/08/17 00:49:17;;;;;;;;;20.00;18.75;;;;;17.73;55.03;101391.66;5039646;28;45404;-60
2021/08/17 00:51:42;;;;;;;;;23.25;18.50;;;;;17.70;55.17;101402.63;5039500;28;48674;-59
2021/08/17 00:54:08;;;;;;;;;22.75;16.75;;;;;17.64;54.92;101388.13;5021302;28;59040;-60
2021/08/17 00:56:33;;;;;;;;;19.00;15.75;;;;;17.60;55.15;101389.47;5038260;28;75686;-60
2021/08/17 00:58:58;;;;;;;;;21.50;18.75;;;;;17.55;55.46;101390.94;5038576;28;71042;-61
2021/08/17 01:01:24;;;;;;;;;22.00;18.25;;;;;17.53;55.26;101392.94;5038769;28;64728;-60
2021/08/17 01:03:49;;;;;;;;;19.00;16.00;;;;;17.48;55.47;101388.94;5038531;28;64136;-59
2021/08/17 01:06:14;;;;;;;;;17.25;15.00;;;;;17.41;55.70;101390.56;5038292;28;74443;-60
2021/08/17 01:08:40;;;;;;;;;21.75;18.75;;;;;17.35;55.89;101384.06;5038561;28;66410;-60
2021/08/17 01:11:05;;;;;;;;;21.00;17.25;;;;;17.32;55.72;101387.03;5038798;28;65364;-60
2021/08/17 01:13:31;;;;;;;;;23.50;19.50;;;;;17.27;56.19;101389.34;5038358;28;64633;-59
2021/08/17 01:15:57;;;;;;;;;18.00;16.25;;;;;17.20;56.11;101383.84;5039013;28;45474;-60
2021/08/17 01:18:23;;;;;;;;;20.50;16.00;;;;;17.16;56.25;101384.31;5039210;28;45419;-61
2021/08/17 01:20:49;;;;;;;;;18.50;18.00;;;;;17.11;56.54;101383.94;5039046;28;45420;-60
2021/08/17 01:23:18;;;;;;;;;20.75;18.00;;;;;17.06;56.61;101382.59;5039393;28;45553;-60
2021/08/17 01:25:43;;;;;;;;;22.25;16.50;;;;;17.04;56.71;101397.03;5039086;28;45264;-60
2021/08/17 01:28:08;;;;;;;;;20.75;18.50;;;;;17.03;57.15;101398.84;5037016;28;67388;-60
2021/08/17 01:30:34;;;;;;;;;23.25;17.50;;;;;17.02;56.90;101396.38;5038349;28;62011;-60
2021/08/17 01:32:59;;;;;;;;;26.25;17.25;;;;;16.98;57.11;101395.81;5039236;28;45193;-60
2021/08/17 01:35:25;;;;;;;;;19.75;16.25;;;;;16.95;57.06;101401.44;5037619;28;45982;-60
2021/08/17 01:37:50;;;;;;;;;23.25;17.00;;;;;16.90;57.25;101403.75;5038950;28;45289;-60
2021/08/17 01:40:16;;;;;;;;;18.00;16.50;;;;;16.86;57.02;101402.38;5038257;28;63650;-60
2021/08/17 01:42:45;;;;;;;;;23.75;19.50;;;;;16.80;57.60;101403.00;5037928;28;68255;-60
2021/08/17 01:45:13;;;;;;;;;22.25;16.25;;;;;16.81;57.47;101402.00;5038785;28;46630;-59
2021/08/17 01:47:38;;;;;;;;;18.00;17.50;;;;;16.78;57.46;101403.13;5038737;28;45398;-60
2021/08/17 01:50:04;;;;;;;;;19.00;15.75;;;;;16.74;57.57;101397.31;5038229;28;45459;-60
2021/08/17 01:52:30;;;;;;;;;18.00;16.50;;;;;16.74;57.83;101396.47;5037249;28;45384;-60
2021/08/17 01:54:55;;;;;;;;;18.00;16.25;;;;;16.73;58.02;101397.47;5037872;28;45421;-61
2021/08/17 01:57:21;;;;;;;;;23.75;15.75;;;;;16.72;58.09;101393.16;5038592;28;45299;-59
2021/08/17 01:59:46;;;;;;;;;19.50;16.50;;;;;16.69;58.27;101386.34;5038703;28;45938;-60
2021/08/17 02:02:11;;;;;;;;;22.25;19.50;;;;;16.69;57.92;101390.84;5037758;28;66169;-60
2021/08/17 02:04:37;;;;;;;;;22.50;18.50;;;;;16.67;58.01;101387.50;5038255;28;46083;-60
2021/08/17 02:07:03;;;;;;;;;16.50;14.75;;;;;16.65;57.97;101390.28;5038484;28;45367;-60
2021/08/17 02:09:29;;;;;;;;;16.25;13.50;;;;;16.61;58.32;101391.59;5038594;28;45316;-61
2021/08/17 02:11:54;;;;;;;;;19.50;15.00;;;;;16.57;58.65;101382.28;5038517;28;45540;-60
2021/08/17 02:14:19;;;;;;;;;16.00;14.25;;;;;16.55;58.49;101385.09;5037371;28;74766;-60
2021/08/17 02:16:45;;;;;;;;;18.00;16.00;;;;;16.53;58.62;101384.41;5037320;28;70973;-60
2021/08/17 02:19:10;;;;;;;;;18.75;17.25;;;;;16.51;58.93;101380.22;5037427;28;65660;-60
2021/08/17 02:21:35;;;;;;;;;21.50;15.75;;;;;16.49;59.04;101384.84;5037657;28;64429;-61
2021/08/17 02:24:01;;;;;;;;;23.00;18.00;;;;;16.46;58.93;101375.41;5037651;28;63676;-60
2021/08/17 02:26:26;;;;;;;;;19.75;14.50;;;;;16.44;58.76;101372.88;5037401;28;70255;-61
2021/08/17 02:28:52;;;;;;;;;17.50;16.00;;;;;16.43;58.97;101376.53;5038289;28;45794;-60
2021/08/17 02:31:17;;;;;;;;;16.50;15.75;;;;;16.42;58.98;101380.19;5038070;28;45447;-60
2021/08/17 02:33:42;;;;;;;;;20.50;17.00;;;;;16.40;58.92;101379.50;5036985;28;73991;-60
2021/08/17 02:36:08;;;;;;;;;17.50;14.50;;;;;16.39;58.90;101375.19;5037176;28;67233;-60
2021/08/17 02:38:33;;;;;;;;;18.50;13.50;;;;;16.35;59.18;101381.78;5037386;28;60528;-60
2021/08/17 02:40:59;;;;;;;;;19.00;16.25;;;;;16.32;59.44;101377.63;5037996;28;45216;-60
2021/08/17 02:43:24;;;;;;;;;17.00;13.50;;;;;16.30;59.19;101373.47;5037685;28;45312;-60
2021/08/17 02:45:51;;;;;;;;;16.75;14.00;;;;;16.27;59.27;101371.94;5037932;28;45490;-60
2021/08/17 02:48:17;;;;;;;;;20.00;16.00;;;;;16.25;59.38;101381.03;5036061;28;45490;-61
2021/08/17 02:50:43;;;;;;;;;22.25;18.00;;;;;16.22;59.48;101379.50;5036813;28;69017;-60
2021/08/17 02:53:08;;;;;;;;;21.50;17.75;;;;;16.20;59.58;101385.97;5037760;28;45499;-61
2021/08/17 02:55:33;;;;;;;;;18.50;14.50;;;;;16.19;59.58;101384.28;5036775;28;68366;-61
2021/08/17 02:58:05;;;;;;;;;18.50;16.00;;;;;16.15;59.35;101386.44;5037836;28;45349;-60
2021/08/17 03:00:31;;;;;;;;;19.25;18.25;;;;;16.10;59.41;101378.91;5037743;28;45411;-60
2021/08/17 03:02:56;;;;;;;;;23.75;15.00;;;;;16.08;59.95;101385.38;5036891;28;56360;-60
2021/08/17 03:05:22;;;;;;;;;15.50;15.00;;;;;16.07;60.16;101386.34;5036697;28;73145;-60
2021/08/17 03:08:03;;;;;;;;;19.75;16.25;;;;;16.06;59.56;101385.50;5036594;28;68098;-60
2021/08/17 03:10:29;;;;;;;;;16.00;14.75;;;;;16.06;59.86;101374.09;5037606;28;45276;-60
2021/08/17 03:12:55;;;;;;;;;16.50;16.50;;;;;16.03;60.04;101383.16;5035814;28;45388;-61
2021/08/17 03:15:20;;;;;;;;;21.00;16.75;;;;;16.01;60.09;101383.31;5036409;28;73213;-60
2021/08/17 03:17:46;;;;;;;;;23.00;16.00;;;;;15.99;60.20;101380.00;5037546;28;45291;-60
2021/08/17 03:20:12;;;;;;;;;22.25;17.00;;;;;15.99;60.07;101384.44;5037488;28;45478;-59
2021/08/17 03:22:37;;;;;;;;;21.25;18.00;;;;;15.96;60.28;101374.97;5037140;28;45327;-60
2021/08/17 03:25:08;;;;;;;;;22.25;18.75;;;;;15.93;60.26;101379.75;5036249;28;72471;-60
2021/08/17 03:27:33;;;;;;;;;16.50;14.00;;;;;15.92;60.28;101380.72;5037440;28;45432;-60
2021/08/17 03:29:59;;;;;;;;;18.25;16.00;;;;;15.92;60.31;101378.06;5036654;28;60136;-60
2021/08/17 03:32:24;;;;;;;;;23.75;17.00;;;;;15.94;60.15;101371.66;5036242;28;70998;-60
2021/08/17 03:34:50;;;;;;;;;19.75;15.00;;;;;15.93;60.04;101371.78;5037004;28;45170;-60
2021/08/17 03:37:16;;;;;;;;;20.75;18.75;;;;;15.91;60.17;101373.75;5037199;28;45286;-60
2021/08/17 03:39:41;;;;;;;;;21.75;14.50;;;;;15.87;60.27;101368.78;5035885;28;45436;-60
2021/08/17 03:42:07;;;;;;;;;18.00;17.75;;;;;15.86;60.33;101375.06;5035714;28;45954;-60
2021/08/17 03:44:32;;;;;;;;;23.25;15.75;;;;;15.85;60.03;101376.00;5035717;28;45297;-60
2021/08/17 03:46:57;;;;;;;;;18.50;15.75;;;;;15.83;59.82;101370.03;5036051;28;68216;-60
2021/08/17 03:49:23;;;;;;;;;16.50;14.50;;;;;15.79;60.01;101366.00;5036239;28;63157;-60
2021/08/17 03:51:48;;;;;;;;;18.50;14.00;;;;;15.77;60.39;101364.47;5035986;28;71318;-61
2021/08/17 03:54:14;;;;;;;;;19.75;17.00;;;;;15.73;60.49;101366.63;5036193;28;58319;-60
2021/08/17 03:56:39;;;;;;;;;25.25;16.75;;;;;15.71;60.15;101365.94;5035704;28;69277;-60
2021/08/17 03:59:04;;;;;;;;;16.25;14.00;;;;;15.70;60.61;101364.25;5036968;28;45566;-59
2021/08/17 04:01:30;;;;;;;;;20.50;17.00;;;;;15.69;60.63;101360.75;5035916;28;64508;-60
2021/08/17 04:03:55;;;;;;;;;16.00;14.25;;;;;15.66;60.44;101366.34;5035724;28;63811;-60
2021/08/17 04:06:20;;;;;;;;;23.75;16.75;;;;;15.63;60.41;101366.66;5035895;28;63071;-60
2021/08/17 04:08:48;;;;;;;;;20.75;16.50;;;;;15.60;60.32;101366.97;5036789;28;45601;-60
2021/08/17 04:11:13;;;;;;;;;15.00;14.00;;;;;15.57;60.36;101370.75;5036479;28;45339;-60
2021/08/17 04:13:40;;;;;;;;;19.00;14.50;;;;;15.55;60.72;101367.41;5034938;28;64364;-60
2021/08/17 04:16:05;;;;;;;;;16.00;11.75;;;;;15.53;60.35;101369.38;5036564;28;45523;-60
2021/08/17 04:18:30;;;;;;;;;19.50;17.50;;;;;15.49;60.63;101362.69;5035774;28;65057;-60
2021/08/17 04:20:56;;;;;;;;;22.00;15.25;;;;;15.49;60.49;101361.88;5034156;28;46845;-60
2021/08/17 04:23:21;;;;;;;;;18.00;14.75;;;;;15.46;60.68;101362.16;5035784;28;63147;-60
2021/08/17 04:25:47;;;;;;;;;18.00;15.50;;;;;15.43;60.71;101356.19;5036546;28;45394;-60
2021/08/17 04:28:12;;;;;;;;;20.75;16.75;;;;;15.41;60.85;101362.59;5036365;28;45529;-60
2021/08/17 04:30:37;;;;;;;;;19.75;14.00;;;;;15.37;60.92;101359.44;5035442;28;66611;-60
2021/08/17 04:33:03;;;;;;;;;16.00;14.50;;;;;15.34;60.84;101366.84;5036285;28;45477;-61
2021/08/17 04:35:28;;;;;;;;;17.25;14.75;;;;;15.31;60.76;101357.38;5035779;28;56834;-61
2021/08/17 04:37:54;;;;;;;;;19.25;14.00;;;;;15.30;61.25;101365.47;5035352;28;64933;-60
2021/08/17 04:40:19;;;;;;;;;17.50;14.00;;;;;15.26;61.03;101368.41;5035910;28;45341;-59
2021/08/17 04:42:45;;;;;;;;;19.00;14.75;;;;;15.26;61.12;101365.75;5035380;28;63882;-60
2021/08/17 04:45:10;;;;;;;;;19.00;15.00;;;;;15.26;61.09;101370.19;5035160;28;69323;-60
2021/08/17 04:47:46;;;;;;;;;18.25;16.50;;;;;15.23;61.24;101366.06;5036043;28;45467;-60
2021/08/17 04:50:12;;;;;;;;;15.00;13.75;;;;;15.23;61.64;101366.06;5034907;28;45363;-60
2021/08/17 04:52:37;;;;;;;;;20.25;16.00;;;;;15.22;61.51;101369.69;5036054;28;45426;-60
2021/08/17 04:55:03;;;;;;;;;17.50;13.75;;;;;15.22;61.25;101366.19;5036028;28;45375;-60
2021/08/17 04:57:28;;;;;;;;;19.25;16.00;;;;;15.20;61.56;101365.50;5035967;28;45273;-60
2021/08/17 04:59:53;;;;;;;;;19.75;12.75;;;;;15.19;61.49;101374.41;5035117;28;71315;-59
2021/08/17 05:02:19;;;;;;;;;18.50;16.50;;;;;15.18;61.49;101365.66;5034880;28;64678;-60
2021/08/17 05:04:44;;;;;;;;;24.50;18.75;;;;;15.18;61.53;101367.44;5035079;28;69251;-60
2021/08/17 05:07:10;;;;;;;;;21.00;15.50;;;;;15.19;61.56;101369.97;5035850;28;45323;-60
2021/08/17 05:09:35;;;;;;;;;17.50;13.25;;;;;15.19;61.71;101372.63;5035735;28;45835;-59
2021/08/17 05:12:00;;;;;;;;;23.75;18.75;;;;;15.19;61.43;101377.91;5034550;28;72164;-59
2021/08/17 05:14:26;;;;;;;;;20.00;14.50;;;;;15.21;61.49;101375.09;5034915;28;64794;-59
2021/08/17 05:16:53;;;;;;;;;19.00;15.00;;;;;15.22;61.62;101374.13;5035637;28;45441;-59
2021/08/17 05:19:18;;;;;;;;;14.50;13.75;;;;;15.25;62.10;101377.31;5035518;28;45284;-60
2021/08/17 05:21:43;;;;;;;;;16.25;13.50;;;;;15.28;61.63;101382.34;5034703;28;72498;-60
2021/08/17 05:24:10;;;;;;;;;19.50;12.75;;;;;15.31;61.34;101385.66;5035709;28;45352;-60
2021/08/17 05:26:35;;;;;;;;;17.75;13.50;;;;;15.31;61.83;101397.06;5038985;28;45311;-59
2021/08/17 05:29:01;;;;;;;;;16.25;12.00;;;;;15.34;61.92;101390.69;5038059;28;69172;-61
2021/08/17 05:31:26;;;;;;;;;25.50;17.00;;;;;15.36;61.70;101391.38;5039039;28;45270;-60
2021/08/17 05:33:51;;;;;;;;;17.50;15.75;;;;;15.37;61.91;101391.19;5054664;28;45190;-60
2021/08/17 05:36:17;;;;;;;;;18.25;17.25;;;;;15.39;61.94;101397.19;5038735;28;47113;-60
2021/08/17 05:38:42;;;;;;;;;21.75;20.00;;;;;15.43;61.73;101395.06;5038430;28;53379;-60
2021/08/17 05:41:07;;;;;;;;;13.75;12.50;;;;;15.47;61.83;101392.97;5036544;28;72040;-60
2021/08/17 05:43:33;;;;;;;;;20.25;15.50;;;;;15.51;62.00;101405.75;5037589;28;45459;-60
2021/08/17 05:46:03;;;;;;;;;19.25;17.00;;;;;15.54;61.93;101402.00;5038444;28;52314;-60
2021/08/17 05:48:29;;;;;;;;;18.75;15.25;;;;;15.57;62.14;101405.19;5038272;28;45468;-59
2021/08/17 05:50:55;;;;;;;;;22.00;20.75;;;;;15.61;61.87;101408.38;5038684;28;45832;-60
2021/08/17 05:53:20;;;;;;;;;16.25;13.00;;;;;15.66;62.10;101394.69;5037773;28;69341;-61
2021/08/17 05:55:45;;;;;;;;;14.25;13.75;;;;;15.72;62.13;101399.38;5038486;28;45396;-60
2021/08/17 05:58:11;;;;;;;;;17.50;14.25;;;;;15.79;61.98;101403.13;5036237;28;67373;-60
2021/08/17 06:00:36;;;;;;;;;14.75;13.00;;;;;15.85;62.20;101410.47;5038069;28;60991;-60
2021/08/17 06:03:02;;;;;;;;;16.75;15.00;;;;;15.95;61.92;101409.56;5037460;28;63649;-60
2021/08/17 06:05:28;;;;;;;;;21.25;15.50;;;;;16.04;61.78;101410.50;5038411;28;45233;-60
2021/08/17 06:07:53;;;;;;;;;16.50;12.75;;;;;16.13;61.50;101413.09;5038395;28;45281;-61
2021/08/17 06:10:19;;;;;;;;;16.50;12.50;;;;;16.22;61.91;101421.13;5038336;28;45360;-60
2021/08/17 06:12:44;;;;;;;;;14.25;12.75;;;;;16.30;61.35;101413.25;5038699;28;45377;-60
2021/08/17 06:15:10;;;;;;;;;15.00;12.25;;;;;16.40;61.15;101413.16;5038428;28;45638;-60
2021/08/17 06:17:36;;;;;;;;;14.75;13.25;;;;;16.49;61.25;101411.38;5038013;28;45253;-60
2021/08/17 06:20:03;;;;;;;;;12.75;10.75;;;;;16.58;61.03;101413.97;5038077;28;45217;-60
2021/08/17 06:22:29;;;;;;;;;15.50;14.75;;;;;16.66;61.04;101415.84;5038227;28;45480;-60
2021/08/17 06:24:56;;;;;;;;;12.25;11.75;;;;;16.74;61.27;101415.91;5037899;28;45422;-60
2021/08/17 06:27:21;;;;;;;;;15.25;13.25;;;;;16.82;60.79;101420.44;5037981;28;46113;-60
2021/08/17 06:29:47;;;;;;;;;13.50;12.50;;;;;16.92;60.74;101417.69;5037213;28;68415;-61
2021/08/17 06:32:12;;;;;;;;;19.50;14.50;;;;;17.01;60.64;101415.94;5036408;28;52576;-60
2021/08/17 06:34:38;;;;;;;;;12.00;11.00;;;;;17.10;60.63;101414.16;5037639;28;53747;-61
2021/08/17 06:37:03;;;;;;;;;15.50;12.25;;;;;17.20;60.23;101410.41;5036291;28;70564;-61
2021/08/17 06:39:28;;;;;;;;;12.00;10.75;;;;;17.30;59.78;101414.75;5037893;28;45230;-61
2021/08/17 06:41:54;;;;;;;;;15.50;12.25;;;;;17.40;59.74;101425.28;5037352;28;59350;-61
2021/08/17 06:44:19;;;;;;;;;11.25;10.50;;;;;17.46;59.28;101421.97;5036825;28;70317;-60
2021/08/17 06:46:46;;;;;;;;;16.00;11.00;;;;;17.54;59.17;101418.50;5037659;28;52198;-61
2021/08/17 06:49:11;;;;;;;;;11.25;9.00;;;;;17.62;59.12;101415.88;5037202;28;45183;-61
2021/08/17 06:51:37;;;;;;;;;13.00;9.00;;;;;17.71;58.88;101422.06;5037890;28;45323;-61
2021/08/17 06:54:02;;;;;;;;;12.75;11.75;;;;;17.82;58.59;101420.91;5036571;28;45496;-60
2021/08/17 06:56:27;;;;;;;;;15.75;12.25;;;;;17.92;58.94;101410.97;5036970;28;61234;-61
2021/08/17 06:58:53;;;;;;;;;13.25;11.00;;;;;18.02;58.32;101414.34;5036487;28;73196;-60
2021/08/17 07:01:18;;;;;;;;;14.50;12.50;;;;;18.17;58.08;101416.38;5037733;28;45790;-61
2021/08/17 07:03:44;;;;;;;;;12.00;9.50;;;;;18.29;57.49;101420.34;5036922;28;52686;-60
2021/08/17 07:06:10;;;;;;;;;13.00;9.50;;;;;18.42;57.58;101419.88;5036851;28;67521;-61
2021/08/17 07:08:35;;;;;;;;;12.50;12.00;;;;;18.55;57.00;101419.34;5037272;28;46045;-60
2021/08/17 07:11:00;;;;;;;;;13.00;10.25;;;;;18.67;57.17;101418.03;5037717;28;45850;-61
2021/08/17 07:13:26;;;;;;;;;14.00;11.75;;;;;18.81;56.77;101416.50;5036522;28;69314;-61
2021/08/17 07:15:52;;;;;;;;;11.00;9.00;;;;;18.95;56.19;101417.63;5035888;28;46118;-60
2021/08/17 07:18:17;;;;;;;;;12.25;10.00;;;;;19.09;55.82;101412.66;5037293;28;45447;-61
2021/08/17 07:20:42;;;;;;;;;12.00;10.50;;;;;19.25;55.33;101411.75;5037171;28;45849;-61
2021/08/17 07:23:08;;;;;;;;;14.25;11.50;;;;;19.37;54.80;101412.19;5037535;28;45574;-60
2021/08/17 07:25:35;;;;;;;;;17.75;12.50;;;;;19.49;54.92;101408.16;5036271;28;71240;-60
2021/08/17 07:28:00;;;;;;;;;15.25;12.50;;;;;19.60;54.86;101414.94;5037218;28;45296;-63
2021/08/17 07:30:26;;;;;;;;;17.25;11.00;;;;;19.72;54.48;101413.53;5036881;28;50738;-61
2021/08/17 07:32:51;;;;;;;;;12.00;10.00;;;;;19.84;54.49;101418.47;5036754;28;57896;-60
2021/08/17 07:35:17;;;;;;;;;11.25;10.75;;;;;19.97;54.22;101418.75;5036350;28;64834;-61
2021/08/17 07:37:44;;;;;;;;;13.50;10.75;;;;;20.12;53.81;101418.00;5037192;28;45948;-61
2021/08/17 07:40:09;;;;;;;;;11.75;10.00;;;;;20.27;53.65;101423.38;5037160;28;45381;-62
2021/08/17 07:42:35;;;;;;;;;18.25;12.00;;;;;20.41;53.11;101416.44;5036738;28;45572;-61
2021/08/17 07:45:00;;;;;;;;;14.75;10.25;;;;;20.54;52.87;101429.16;5036413;28;62068;-61
2021/08/17 07:47:26;;;;;;;;;12.00;10.00;;;;;20.65;52.66;101426.06;5036558;28;52157;-62
2021/08/17 07:49:51;;;;;;;;;11.00;11.00;;;;;20.78;52.45;101428.13;5035015;28;68933;-61
2021/08/17 07:52:16;;;;;;;;;14.00;11.25;;;;;20.87;51.74;101419.03;5037172;28;45587;-61
2021/08/17 07:54:42;;;;;;;;;11.50;10.00;;;;;21.01;51.68;101424.56;5035737;28;75575;-61
2021/08/17 07:57:07;;;;;;;;;10.25;8.25;;;;;21.15;51.01;101418.41;5035487;28;73190;-61
2021/08/17 07:59:33;;;;;;;;;8.50;8.00;;;;;21.28;51.31;101430.25;5036859;28;45277;-61
2021/08/17 08:01:58;;;;;;;;;10.75;9.00;;;;;21.41;50.19;101417.06;5035911;28;65764;-62
2021/08/17 08:04:24;;;;;;;;;15.50;9.50;;;;;21.54;50.20;101420.94;5036363;28;46248;-62
2021/08/17 08:06:49;;;;;;;;;12.25;9.75;;;;;21.66;50.31;101421.31;5036738;28;45333;-60
2021/08/17 08:09:15;;;;;;;;;9.75;8.75;;;;;21.75;49.98;101417.50;5036739;28;45470;-60
2021/08/17 08:11:40;;;;;;;;;18.50;15.00;;;;;21.86;49.51;101417.00;5036604;28;45647;-61
2021/08/17 08:14:05;;;;;;;;;14.50;12.00;;;;;22.00;49.05;101422.47;5036511;28;45395;-61
2021/08/17 08:16:31;;;;;;;;;13.50;11.75;;;;;22.07;48.24;101418.03;5035538;28;67807;-61
2021/08/17 08:18:56;;;;;;;;;13.75;10.00;;;;;22.08;48.95;101419.69;5036536;28;45666;-61
2021/08/17 08:21:22;;;;;;;;;12.75;9.25;;;;;22.08;48.35;101419.69;5035888;28;60200;-61
2021/08/17 08:23:47;;;;;;;;;10.00;9.25;;;;;22.12;48.64;101428.19;5036377;28;46054;-61
2021/08/17 08:26:12;;;;;;;;;13.75;10.75;;;;;22.16;48.72;101427.59;5036356;28;45355;-62
2021/08/17 08:28:38;;;;;;;;;9.75;9.25;;;;;22.21;47.68;101419.81;5035417;28;68193;-62
2021/08/17 08:31:03;;;;;;;;;11.50;10.25;;;;;22.26;48.16;101426.44;5035257;28;69380;-61
2021/08/17 08:33:29;;;;;;;;;11.75;10.00;;;;;22.28;48.31;101427.09;5035930;28;54227;-62
2021/08/17 08:35:54;;;;;;;;;12.00;10.00;;;;;22.27;48.09;101428.91;5035922;28;52815;-61
2021/08/17 08:38:19;;;;;;;;;17.00;11.00;;;;;22.28;48.05;101430.56;5035510;28;64241;-62
2021/08/17 08:40:45;;;;;;;;;10.25;8.75;;;;;22.30;48.28;101428.53;5036378;28;45316;-61
2021/08/17 08:43:11;;;;;;;;;12.50;12.25;;;;;22.30;47.44;101431.22;5036116;28;46287;-61
2021/08/17 08:45:38;;;;;;;;;15.50;11.75;;;;;22.27;47.43;101428.91;5036177;28;45350;-62
2021/08/17 08:48:04;;;;;;;;;12.00;10.25;;;;;22.26;47.65;101434.47;5035209;28;45233;-61
2021/08/17 08:50:29;;;;;;;;;14.25;11.75;;;;;22.23;47.65;101443.72;5036382;28;45331;-61
2021/08/17 08:52:58;;;;;;;;;11.00;9.00;;;;;22.20;47.06;101442.25;5035383;28;63034;-61
2021/08/17 08:55:23;;;;;;;;;10.00;9.00;;;;;22.17;47.09;101437.28;5051447;28;45257;-61
2021/08/17 08:57:50;;;;;;;;;10.00;9.00;;;;;22.11;47.32;101435.34;5035189;28;65795;-60
2021/08/17 09:00:16;;;;;;;;;12.50;9.25;;;;;22.05;47.38;101436.97;5037299;28;45439;-60
2021/08/17 09:02:42;;;;;;;;;10.00;9.75;;;;;22.01;48.20;101430.34;5038046;28;45475;-61
2021/08/17 09:05:08;;;;;;;;;11.25;10.00;;;;;21.96;47.80;101427.41;5038265;28;46545;-61
2021/08/17 09:07:36;;;;;;;;;18.50;14.25;;;;;21.91;47.90;101427.13;5039477;28;45378;-61
2021/08/17 09:10:14;;;;;;;;;12.50;11.00;;;;;21.86;48.21;101434.91;5039517;28;45395;-61
2021/08/17 09:12:51;;;;;;;;;12.75;11.50;;;;;21.78;47.94;101439.34;5039362;28;46419;-60
2021/08/17 09:15:18;;;;;;;;;12.75;9.00;;;;;21.75;47.97;101436.22;5039146;28;45905;-61
2021/08/17 09:17:43;;;;;;;;;10.00;9.50;;;;;21.76;48.50;101433.34;5039252;28;45209;-61
2021/08/17 09:20:13;;;;;;;;;13.75;10.50;;;;;21.86;48.56;101432.22;5039288;28;45513;-61
2021/08/17 09:22:38;;;;;;;;;10.00;9.25;;;;;21.91;47.63;101435.16;5054402;28;45733;-61
2021/08/17 09:25:06;;;;;;;;;9.75;9.00;;;;;21.96;47.92;101430.06;5039025;28;45462;-60
2021/08/17 09:27:33;;;;;;;;;10.25;8.25;;;;;21.98;47.17;101427.22;5039298;28;45429;-60
2021/08/17 09:30:00;;;;;;;;;13.00;8.75;;;;;21.95;47.32;101425.75;5039197;28;45255;-61
2021/08/17 09:32:26;;;;;;;;;12.00;10.00;;;;;21.96;47.64;101421.22;5038982;28;45370;-61
2021/08/17 09:34:56;;;;;;;;;15.00;8.50;;;;;21.95;48.11;101420.38;5039026;28;45459;-60
2021/08/17 09:37:26;;;;;;;;;12.75;9.25;;;;;21.95;47.59;101420.38;5039208;28;45288;-61
2021/08/17 09:39:54;;;;;;;;;15.75;10.75;;;;;21.93;48.00;101415.25;5038940;28;45629;-61
2021/08/17 09:42:29;;;;;;;;;11.00;9.25;;;;;21.91;47.93;101411.94;5038928;28;46104;-61
2021/08/17 09:45:15;;;;;;;;;13.00;10.00;;;;;21.87;47.37;101407.97;5037567;28;45872;-61
2021/08/17 09:47:45;;;;;;;;;8.50;8.50;;;;;21.85;47.09;101418.03;5039311;28;45311;-61
2021/08/17 09:50:26;;;;;;;;;10.25;8.00;;;;;21.84;47.28;101412.84;5038792;28;45518;-60
2021/08/17 09:53:05;;;;;;;;;11.25;8.50;;;;;21.87;47.13;101415.16;5038489;28;46338;-61
2021/08/17 09:55:30;;;;;;;;;13.00;9.00;;;;;21.91;47.69;101411.06;5038637;28;45308;-62
2021/08/17 09:57:55;;;;;;;;;9.75;8.00;;;;;21.92;47.09;101408.22;5036367;28;67199;-61
2021/08/17 10:00:21;;;;;;;;;8.25;8.25;;;;;21.95;46.91;101404.34;5036203;28;68467;-61
2021/08/17 10:02:47;;;;;;;;;9.50;9.50;;;;;21.98;47.07;101405.81;5037184;28;75294;-62
2021/08/17 10:05:14;;;;;;;;;14.50;8.50;;;;;22.03;47.06;101400.69;5038545;28;45423;-61
2021/08/17 10:07:40;;;;;;;;;9.25;8.00;;;;;22.06;47.00;101405.66;5038554;28;45260;-61
2021/08/17 10:10:06;;;;;;;;;9.25;9.00;;;;;22.11;46.47;101397.06;5038356;28;45344;-61
2021/08/17 10:12:31;;;;;;;;;10.50;7.75;;;;;22.14;46.39;101407.41;5037438;28;46006;-60
2021/08/17 10:14:57;;;;;;;;;10.75;7.00;;;;;22.13;46.87;101403.88;5037080;28;45352;-61
2021/08/17 10:17:22;;;;;;;;;10.50;8.00;;;;;22.13;46.29;101405.75;5037236;28;45412;-60
2021/08/17 10:19:48;;;;;;;;;11.75;9.25;;;;;22.13;45.79;101405.75;5037395;28;70425;-61
2021/08/17 10:22:13;;;;;;;;;8.25;8.25;;;;;22.14;45.14;101391.34;5035881;28;75576;-61
2021/08/17 10:24:40;;;;;;;;;10.00;7.00;;;;;22.13;44.77;101401.22;5037581;28;64275;-61
2021/08/17 10:27:30;;;;;;;;;8.75;7.25;;;;;22.14;44.75;101397.50;5037105;28;45437;-61
2021/08/17 10:30:02;;;;;;;;;9.50;7.00;;;;;22.14;45.30;101402.06;5038317;28;45304;-61
2021/08/17 10:32:47;;;;;;;;;7.00;7.00;;;;;22.16;45.34;101400.00;5037700;28;46172;-61
2021/08/17 10:35:28;;;;;;;;;6.75;6.75;;;;;22.16;45.47;101398.16;5037801;28;45906;-61
2021/08/17 10:38:09;;;;;;;;;9.75;7.75;;;;;22.21;44.87;101389.56;5037943;28;45278;-60
2021/08/17 10:40:53;;;;;;;;;7.00;7.00;;;;;22.27;45.10;101383.41;5037978;28;45613;-59
2021/08/17 10:43:27;;;;;;;;;9.00;7.00;;;;;22.39;44.64;101376.50;5037747;28;46061;-61
2021/08/17 10:45:54;;;;;;;;;11.00;7.50;;;;;22.57;44.63;101380.59;5037563;28;45430;-61
2021/08/17 10:49:05;;;;;;;;;7.00;6.25;;;;;22.75;44.71;101366.69;5037746;28;45420;-61
2021/08/17 10:51:30;;;;;;;;;10.50;8.00;;;;;22.88;43.55;101370.47;5037484;28;45205;-62
2021/08/17 10:54:14;;;;;;;;;7.00;7.00;;;;;22.89;43.66;101370.25;5037611;28;46523;-60
2021/08/17 10:56:40;;;;;;;;;8.25;6.75;;;;;22.90;44.09;101379.16;5037628;28;45763;-61
2021/08/17 10:59:07;;;;;;;;;7.25;7.00;;;;;22.89;43.66;101378.31;5037731;28;45258;-61
2021/08/17 11:01:35;;;;;;;;;11.00;7.25;;;;;22.86;43.94;101373.34;5035754;28;56821;-60
2021/08/17 11:04:12;;;;;;;;;10.75;9.00;;;;;22.86;43.73;101375.22;5037214;28;46134;-61
2021/08/17 11:06:50;;;;;;;;;10.00;10.00;;;;;22.78;43.84;101370.84;5037681;28;45843;-61
2021/08/17 11:09:25;;;;;;;;;9.75;7.75;;;;;22.68;44.04;101369.34;5037407;28;47025;-61